Time;durP1;ratioP1;P1;durP2;ratioP2;P2;SDS_P1;SDS_P2;PMS_P1;PMS_P2;Temp;Humidity;BMP_temperature;BMP_pressure;BME280_temperature;BME280_humidity;BME280_pressure;Samples;Min_cycle;Max_cycle;Signal;HPM_P1;HPM_P2
2023/06/12 00:01:20;;;;;;;3.35;3.05;;;;;;;19.11;62.91;96244.00;4960351;29;20215;-59
2023/06/12 00:03:49;;;;;;;3.63;3.35;;;;;;;19.14;61.98;96243.56;4960388;29;20195;-60
2023/06/12 00:06:16;;;;;;;4.03;3.70;;;;;;;19.02;62.29;96242.56;4961808;29;20214;-59
2023/06/12 00:08:43;;;;;;;3.70;3.40;;;;;;;19.00;62.66;96241.91;4939474;29;20660;-59
2023/06/12 00:11:12;;;;;;;3.33;3.13;;;;;;;18.84;62.57;96241.31;4944654;29;20331;-59
2023/06/12 00:13:39;;;;;;;3.70;3.40;;;;;;;18.95;61.96;96244.41;4952126;29;20238;-58
2023/06/12 00:16:06;;;;;;;3.67;3.40;;;;;;;18.85;62.71;96240.25;4943592;29;20307;-60
2023/06/12 00:18:32;;;;;;;3.90;3.60;;;;;;;18.80;64.32;96245.41;4939384;29;20223;-59
2023/06/12 00:21:01;;;;;;;5.40;3.65;;;;;;;18.81;64.01;96239.00;4939173;29;20226;-58
2023/06/12 00:23:29;;;;;;;3.95;3.65;;;;;;;18.69;63.97;96243.31;4939216;29;20302;-58
2023/06/12 00:25:55;;;;;;;4.05;3.65;;;;;;;18.61;65.23;96234.66;4951454;29;20242;-58
2023/06/12 00:28:22;;;;;;;3.50;3.30;;;;;;;18.59;64.81;96237.53;4939051;29;20211;-58
2023/06/12 00:30:48;;;;;;;3.67;3.38;;;;;;;18.59;64.21;96236.72;4938592;29;20227;-60
2023/06/12 00:33:16;;;;;;;3.40;3.17;;;;;;;18.49;64.98;96239.75;4939331;29;20207;-58
2023/06/12 00:35:43;;;;;;;3.50;3.20;;;;;;;18.42;65.64;96241.59;4939396;29;20215;-58
2023/06/12 00:38:11;;;;;;;3.60;3.40;;;;;;;18.36;66.37;96253.91;4948583;29;20526;-60
2023/06/12 00:40:39;;;;;;;3.35;3.15;;;;;;;18.26;66.48;96249.97;4943384;28;20214;-58
2023/06/12 00:43:08;;;;;;;3.60;3.40;;;;;;;18.33;65.44;96251.63;4944603;29;20211;-58
2023/06/12 00:45:36;;;;;;;3.90;3.60;;;;;;;18.22;65.56;96246.84;4938782;29;20239;-59
2023/06/12 00:48:05;;;;;;;3.47;3.25;;;;;;;18.08;65.98;96237.13;4948584;29;20233;-58
2023/06/12 00:50:31;;;;;;;3.53;3.30;;;;;;;18.00;66.22;96247.16;4954438;28;20211;-58
2023/06/12 00:52:59;;;;;;;3.55;3.28;;;;;;;17.96;68.52;96248.59;4938874;29;20214;-59
2023/06/12 00:55:30;;;;;;;3.95;3.65;;;;;;;17.92;67.74;96244.66;4943495;29;20203;-59
2023/06/12 00:57:56;;;;;;;3.75;3.47;;;;;;;17.83;68.73;96242.16;4945220;29;20218;-58
2023/06/12 01:00:23;;;;;;;4.30;3.50;;;;;;;17.78;69.79;96244.56;4938419;29;20648;-60
2023/06/12 01:02:51;;;;;;;4.47;3.58;;;;;;;17.78;69.13;96239.22;4941483;28;20298;-59
2023/06/12 01:05:20;;;;;;;3.45;3.15;;;;;;;17.72;69.78;96241.88;4939159;29;20323;-59
2023/06/12 01:07:52;;;;;;;4.18;3.58;;;;;;;17.71;70.20;96233.00;4950366;29;20203;-59
2023/06/12 01:10:21;;;;;;;3.40;3.20;;;;;;;17.70;69.43;96236.72;4944068;29;20227;-59
2023/06/12 01:12:49;;;;;;;3.80;3.50;;;;;;;17.70;69.75;96238.56;4970342;29;20249;-59
2023/06/12 01:15:15;;;;;;;3.85;3.58;;;;;;;17.71;69.09;96238.38;4958029;29;20205;-59
2023/06/12 01:17:42;;;;;;;4.05;3.65;;;;;;;17.68;69.85;96238.75;4957559;29;20207;-59
2023/06/12 01:20:14;;;;;;;4.00;3.70;;;;;;;17.61;70.58;96243.25;4958537;29;20211;-59
2023/06/12 01:22:44;;;;;;;3.78;3.47;;;;;;;17.62;68.83;96238.72;4957099;29;20199;-59
2023/06/12 01:25:45;;;;;;;5.47;3.50;;;;;;;17.58;70.01;96238.28;4964158;29;20231;-60
2023/06/12 01:28:28;;;;;;;5.45;3.95;;;;;;;17.49;70.27;96239.44;4960445;29;20224;-58
2023/06/12 01:31:13;;;;;;;3.63;3.33;;;;;;;17.29;69.23;96239.28;4974845;28;20193;-59
2023/06/12 01:33:43;;;;;;;3.80;3.50;;;;;;;17.25;72.65;96231.88;4975064;29;20202;-59
2023/06/12 01:36:15;;;;;;;4.13;3.67;;;;;;;17.28;72.56;96236.84;4974268;29;20205;-58
2023/06/12 01:38:42;;;;;;;3.80;3.40;;;;;;;17.28;72.26;96231.50;4965143;29;20206;-59
2023/06/12 01:41:09;;;;;;;3.90;3.60;;;;;;;17.24;72.44;96232.88;4963450;29;20187;-59
2023/06/12 01:43:36;;;;;;;4.10;3.70;;;;;;;17.17;71.03;96235.53;4961367;29;20217;-58
2023/06/12 01:46:03;;;;;;;5.40;4.18;;;;;;;17.19;71.54;96233.47;4938172;29;20248;-59
2023/06/12 01:48:30;;;;;;;4.22;3.92;;;;;;;17.07;73.01;96239.53;4941592;29;20245;-59
2023/06/12 01:50:58;;;;;;;3.95;3.65;;;;;;;17.00;74.49;96239.50;4943163;29;20206;-59
2023/06/12 01:53:24;;;;;;;3.70;3.50;;;;;;;16.96;74.17;96240.88;4944669;29;20214;-59
2023/06/12 01:55:53;;;;;;;3.70;3.45;;;;;;;16.99;73.33;96237.00;4942140;29;20744;-59
2023/06/12 01:58:19;;;;;;;3.80;3.53;;;;;;;16.97;75.45;96244.41;4937380;29;20254;-58
2023/06/12 02:00:46;;;;;;;4.15;3.60;;;;;;;16.86;75.00;96235.06;4941591;29;20203;-58
2023/06/12 02:03:12;;;;;;;4.13;3.85;;;;;;;16.81;74.94;96240.97;4954656;29;20590;-58
2023/06/12 02:05:39;;;;;;;4.20;3.90;;;;;;;16.88;75.35;96233.00;4938125;29;20724;-58
2023/06/12 02:08:07;;;;;;;3.83;3.58;;;;;;;16.89;74.65;96243.50;4938352;29;20211;-58
2023/06/12 02:10:33;;;;;;;4.38;3.67;;;;;;;16.80;74.68;96244.63;4939606;29;20664;-59
2023/06/12 02:13:01;;;;;;;3.95;3.65;;;;;;;16.82;75.08;96242.63;4945204;29;20213;-60
2023/06/12 02:15:28;;;;;;;4.07;3.78;;;;;;;16.82;75.60;96247.13;4937446;29;20204;-59
2023/06/12 02:17:55;;;;;;;4.00;3.80;;;;;;;16.83;75.47;96248.75;4937550;29;20234;-59
2023/06/12 02:20:21;;;;;;;4.70;4.10;;;;;;;16.73;76.08;96242.91;4936092;29;20293;-58
2023/06/12 02:22:48;;;;;;;4.25;3.85;;;;;;;16.64;75.20;96249.41;4939503;29;20218;-59
2023/06/12 02:25:16;;;;;;;4.15;3.85;;;;;;;16.64;77.13;96252.91;4954059;29;20251;-58
2023/06/12 02:27:42;;;;;;;4.03;3.80;;;;;;;16.68;76.97;96256.03;4941301;29;20237;-59
2023/06/12 02:30:10;;;;;;;3.67;3.47;;;;;;;16.77;76.24;96250.38;4940728;29;20215;-58
2023/06/12 02:32:38;;;;;;;4.05;3.65;;;;;;;16.65;78.06;96257.22;4939429;29;20672;-60
2023/06/12 02:35:08;;;;;;;3.90;3.60;;;;;;;16.67;76.03;96255.19;4951016;29;20285;-60
2023/06/12 02:37:35;;;;;;;4.70;4.20;;;;;;;16.65;76.74;96262.56;4948345;29;20203;-59
2023/06/12 02:40:01;;;;;;;4.03;3.83;;;;;;;16.64;76.83;96260.91;4937700;29;20583;-59
2023/06/12 02:42:29;;;;;;;4.18;3.83;;;;;;;16.62;75.79;96256.75;4942910;29;20235;-59
2023/06/12 02:44:58;;;;;;;3.70;3.40;;;;;;;16.60;76.81;96254.31;4936605;29;20239;-60
2023/06/12 02:47:24;;;;;;;4.47;3.97;;;;;;;16.52;75.08;96256.22;4937247;29;20222;-59
2023/06/12 02:49:51;;;;;;;4.03;3.83;;;;;;;16.51;77.12;96257.25;4945266;29;20224;-59
2023/06/12 02:52:17;;;;;;;4.40;4.00;;;;;;;16.57;76.33;96246.69;4943361;29;20207;-58
2023/06/12 02:54:46;;;;;;;4.68;4.28;;;;;;;16.61;76.61;96249.81;4939257;29;20211;-59
2023/06/12 02:57:12;;;;;;;3.92;3.65;;;;;;;16.52;78.19;96251.72;4947022;29;20236;-58
2023/06/12 02:59:40;;;;;;;4.03;3.72;;;;;;;16.56;76.01;96250.34;4937491;29;20211;-59
2023/06/12 03:02:07;;;;;;;4.63;4.15;;;;;;;16.53;75.70;96253.38;4950633;29;20214;-58
2023/06/12 03:04:35;;;;;;;3.92;3.63;;;;;;;16.47;77.71;96253.31;4938312;29;20675;-58
2023/06/12 03:07:05;;;;;;;4.28;3.90;;;;;;;16.37;75.93;96256.25;4939986;29;20241;-60
2023/06/12 03:09:32;;;;;;;4.30;3.90;;;;;;;16.38;77.78;96250.75;4941591;29;20230;-58
2023/06/12 03:11:59;;;;;;;4.65;4.05;;;;;;;16.40;78.01;96258.59;4946053;29;20259;-59
2023/06/12 03:14:26;;;;;;;6.65;3.83;;;;;;;16.36;76.27;96260.81;4941096;29;20231;-59
2023/06/12 03:16:54;;;;;;;4.10;3.85;;;;;;;16.46;77.59;96262.31;4950858;29;20207;-58
2023/06/12 03:19:20;;;;;;;4.43;4.10;;;;;;;16.35;77.92;96260.97;4937045;29;20628;-59
2023/06/12 03:21:47;;;;;;;4.32;3.92;;;;;;;16.29;76.89;96261.72;4936891;29;20211;-59
2023/06/12 03:24:14;;;;;;;3.90;3.70;;;;;;;16.32;78.93;96261.34;4936845;29;20230;-61
2023/06/12 03:26:41;;;;;;;4.63;4.22;;;;;;;16.27;78.34;96259.25;4944128;29;20309;-59
2023/06/12 03:29:08;;;;;;;4.07;3.78;;;;;;;16.20;79.60;96263.66;4947369;29;20221;-58
2023/06/12 03:31:37;;;;;;;4.57;4.22;;;;;;;16.23;78.98;96267.78;4939263;29;20218;-59
2023/06/12 03:34:05;;;;;;;4.40;4.00;;;;;;;16.19;80.22;96269.22;4953933;29;20225;-58
2023/06/12 03:36:33;;;;;;;4.50;4.20;;;;;;;16.22;80.11;96276.84;4960081;29;20206;-60
2023/06/12 03:39:02;;;;;;;4.63;4.22;;;;;;;16.11;80.91;96280.81;4966834;29;20210;-60
2023/06/12 03:41:31;;;;;;;4.72;4.43;;;;;;;16.09;80.59;96282.81;4962423;29;20459;-58
2023/06/12 03:43:59;;;;;;;4.47;4.18;;;;;;;16.05;81.86;96281.53;4968660;28;20218;-58
2023/06/12 03:46:26;;;;;;;4.60;4.30;;;;;;;16.08;81.50;96275.84;4953674;29;20238;-58
2023/06/12 03:48:52;;;;;;;4.40;4.10;;;;;;;16.09;82.96;96288.16;4955756;29;20254;-59
2023/06/12 03:51:21;;;;;;;4.63;4.20;;;;;;;16.10;83.18;96280.97;4961042;29;20222;-59
2023/06/12 03:53:47;;;;;;;4.90;4.50;;;;;;;16.12;82.46;96289.66;4958636;29;20233;-63
2023/06/12 03:56:14;;;;;;;4.13;3.90;;;;;;;16.13;81.58;96283.28;4951273;29;20306;-58
2023/06/12 03:58:40;;;;;;;4.72;4.28;;;;;;;16.08;80.57;96293.69;4941029;29;20215;-58
2023/06/12 04:01:07;;;;;;;4.50;4.00;;;;;;;16.06;82.13;96285.03;4950597;29;20261;-58
2023/06/12 04:03:38;;;;;;;4.57;4.28;;;;;;;16.09;83.98;96292.66;4955136;29;20211;-58
2023/06/12 04:06:04;;;;;;;4.50;3.80;;;;;;;16.13;85.33;96292.09;4940454;29;20571;-58
2023/06/12 04:08:33;;;;;;;4.40;4.10;;;;;;;16.20;84.29;96293.03;4945104;29;20213;-60
2023/06/12 04:11:02;;;;;;;4.03;3.72;;;;;;;16.24;84.56;96296.13;4957050;29;20268;-60
2023/06/12 04:13:29;;;;;;;4.88;4.47;;;;;;;16.25;85.00;96303.97;4957506;28;20226;-58
2023/06/12 04:15:58;;;;;;;4.35;4.05;;;;;;;16.30;85.15;96301.56;4950396;29;20324;-59
2023/06/12 04:18:24;;;;;;;4.63;4.22;;;;;;;16.29;85.73;96307.09;4939977;29;20207;-58
2023/06/12 04:20:51;;;;;;;4.85;4.47;;;;;;;16.32;85.46;96307.53;4938973;29;20372;-59
2023/06/12 04:23:17;;;;;;;4.22;3.97;;;;;;;16.35;85.71;96311.69;4954230;29;20217;-60
2023/06/12 04:25:48;;;;;;;5.82;5.32;;;;;;;16.41;86.12;96310.91;4945836;29;20231;-58
2023/06/12 04:28:16;;;;;;;6.10;5.60;;;;;;;16.42;87.20;96307.25;4942201;29;20702;-60
2023/06/12 04:30:44;;;;;;;5.10;4.75;;;;;;;16.51;87.83;96308.78;4955126;29;20214;-59
2023/06/12 04:33:14;;;;;;;4.50;4.20;;;;;;;16.57;89.64;96308.06;4946439;29;20207;-60
2023/06/12 04:35:45;;;;;;;4.88;4.50;;;;;;;16.65;88.70;96313.28;4952470;29;20198;-58
2023/06/12 04:38:12;;;;;;;4.85;4.43;;;;;;;16.76;89.11;96314.63;4956950;28;20289;-59
2023/06/12 04:40:38;;;;;;;4.90;4.38;;;;;;;16.87;88.95;96322.97;4943157;29;20640;-59
2023/06/12 04:43:06;;;;;;;4.68;4.32;;;;;;;17.12;87.47;96312.75;4938700;29;20206;-60
2023/06/12 04:45:34;;;;;;;4.80;4.40;;;;;;;17.26;86.99;96308.34;4942545;28;20302;-59
2023/06/12 04:48:03;;;;;;;5.50;4.38;;;;;;;17.41;87.47;96317.09;4938390;29;20524;-59
2023/06/12 04:50:30;;;;;;;5.32;4.93;;;;;;;17.49;87.30;96314.31;4938860;29;20211;-59
2023/06/12 04:52:57;;;;;;;4.72;4.32;;;;;;;17.60;85.34;96315.66;4938652;29;20219;-58
2023/06/12 04:55:29;;;;;;;4.85;4.50;;;;;;;17.68;84.76;96310.97;4941720;29;20203;-61
2023/06/12 04:57:55;;;;;;;4.55;4.25;;;;;;;17.77;84.31;96306.31;4944570;29;20203;-61
2023/06/12 05:00:23;;;;;;;4.95;4.45;;;;;;;17.85;82.82;96309.63;4939829;29;20226;-60
2023/06/12 05:02:50;;;;;;;4.57;4.28;;;;;;;17.97;80.15;96306.41;4943321;29;20294;-61
2023/06/12 05:05:16;;;;;;;7.63;4.43;;;;;;;18.07;78.14;96313.06;4939532;29;20257;-62
2023/06/12 05:07:45;;;;;;;4.57;4.20;;;;;;;18.21;78.24;96322.00;4938425;29;20246;-61
2023/06/12 05:10:12;;;;;;;4.72;4.40;;;;;;;18.40;77.49;96313.25;4938076;29;20211;-61
2023/06/12 05:12:39;;;;;;;4.57;4.18;;;;;;;18.53;75.67;96307.94;4948516;29;20230;-61
2023/06/12 05:15:06;;;;;;;4.57;4.28;;;;;;;18.74;75.25;96309.69;4942139;29;20207;-61
2023/06/12 05:17:34;;;;;;;4.80;4.40;;;;;;;18.88;71.20;96311.38;4945410;29;20211;-62
2023/06/12 05:20:01;;;;;;;4.50;4.20;;;;;;;18.99;68.33;96316.13;4937593;29;20652;-61
2023/06/12 05:22:27;;;;;;;5.03;4.53;;;;;;;19.11;67.14;96313.69;4950129;29;20234;-61
2023/06/12 05:24:53;;;;;;;4.22;3.92;;;;;;;19.29;67.32;96320.09;4948746;29;20238;-62
2023/06/12 05:27:20;;;;;;;4.70;4.30;;;;;;;19.44;68.36;96317.25;4937887;29;20227;-61
2023/06/12 05:29:47;;;;;;;6.18;4.60;;;;;;;19.55;66.40;96318.50;4951979;29;20202;-61
2023/06/12 05:32:14;;;;;;;4.80;4.40;;;;;;;19.82;65.92;96312.06;4935883;29;20215;-61
2023/06/12 05:34:42;;;;;;;5.35;4.40;;;;;;;19.97;64.61;96317.22;4936325;29;20282;-61
2023/06/12 05:37:08;;;;;;;4.72;4.30;;;;;;;20.08;63.16;96321.94;4949902;29;20218;-60
2023/06/12 05:39:35;;;;;;;4.10;3.80;;;;;;;20.19;62.63;96327.47;4937193;29;20559;-60
2023/06/12 05:42:01;;;;;;;4.97;4.57;;;;;;;20.15;60.72;96314.69;4937082;29;20270;-60
2023/06/12 05:44:28;;;;;;;4.90;4.50;;;;;;;20.33;61.73;96314.88;4937370;29;20211;-60
2023/06/12 05:46:54;;;;;;;4.65;4.35;;;;;;;20.57;61.24;96316.84;4936465;29;20270;-60
2023/06/12 05:49:20;;;;;;;4.82;4.47;;;;;;;20.62;59.41;96322.41;4940666;29;20232;-61
2023/06/12 05:51:48;;;;;;;7.13;4.32;;;;;;;20.86;58.45;96312.81;4949869;29;20214;-60
2023/06/12 05:54:16;;;;;;;4.97;4.68;;;;;;;21.11;59.17;96320.97;4937230;29;20219;-60
2023/06/12 05:56:43;;;;;;;4.90;4.50;;;;;;;21.00;58.59;96325.13;4941579;29;20608;-60
2023/06/12 05:59:09;;;;;;;4.55;4.15;;;;;;;21.25;58.80;96319.84;4937141;29;20206;-60
2023/06/12 06:01:36;;;;;;;5.10;4.70;;;;;;;21.34;57.44;96322.03;4936784;29;20241;-60
2023/06/12 06:04:03;;;;;;;4.63;4.32;;;;;;;21.49;57.80;96321.72;4937203;29;20225;-61
2023/06/12 06:06:30;;;;;;;5.05;4.63;;;;;;;21.73;57.26;96312.81;4937115;29;20262;-61
2023/06/12 06:08:59;;;;;;;4.60;4.20;;;;;;;21.93;57.21;96322.63;4937165;29;20210;-61
2023/06/12 06:11:28;;;;;;;6.13;4.82;;;;;;;21.91;57.26;96317.44;4939106;29;20235;-60
2023/06/12 06:13:54;;;;;;;5.72;4.20;;;;;;;22.26;56.23;96325.78;4947001;28;20628;-61
2023/06/12 06:16:21;;;;;;;7.40;4.35;;;;;;;22.54;56.72;96326.09;4936744;29;20211;-60
2023/06/12 06:18:47;;;;;;;4.47;4.07;;;;;;;22.58;54.06;96329.16;4938629;29;20207;-61
2023/06/12 06:21:13;;;;;;;4.47;4.10;;;;;;;22.88;54.32;96323.84;4940173;29;20226;-61
2023/06/12 06:23:40;;;;;;;5.25;4.57;;;;;;;22.92;53.66;96325.84;4938123;29;20207;-61
2023/06/12 06:26:10;;;;;;;5.22;4.72;;;;;;;23.09;53.75;96332.28;4936408;29;20231;-60
2023/06/12 06:28:37;;;;;;;5.88;4.80;;;;;;;23.19;53.82;96332.53;4937837;29;20214;-59
2023/06/12 06:31:07;;;;;;;5.35;4.63;;;;;;;23.25;53.26;96330.78;4942324;29;20214;-60
2023/06/12 06:33:34;;;;;;;5.18;4.72;;;;;;;23.39;52.87;96329.53;4955574;29;20881;-60
2023/06/12 06:36:00;;;;;;;4.88;4.40;;;;;;;23.32;52.16;96326.13;4951620;29;20211;-60
2023/06/12 06:38:27;;;;;;;5.60;4.22;;;;;;;23.64;52.19;96332.91;4948334;29;20214;-60
2023/06/12 06:40:53;;;;;;;4.75;4.28;;;;;;;23.75;51.85;96329.41;4957116;28;20234;-60
2023/06/12 06:43:21;;;;;;;4.78;4.28;;;;;;;24.02;51.08;96326.28;4958654;29;20226;-60
2023/06/12 06:45:48;;;;;;;6.70;4.43;;;;;;;24.30;51.22;96326.41;4956595;29;20644;-60
2023/06/12 06:48:14;;;;;;;4.90;4.28;;;;;;;24.30;50.77;96325.59;4955636;29;20249;-60
2023/06/12 06:50:40;;;;;;;5.60;4.35;;;;;;;24.61;49.66;96327.88;4955535;28;20214;-60
2023/06/12 06:53:07;;;;;;;4.68;4.28;;;;;;;24.39;49.61;96327.69;4956026;29;20214;-60
2023/06/12 06:55:34;;;;;;;5.40;4.55;;;;;;;24.44;49.89;96333.22;4950345;29;20640;-61
2023/06/12 06:58:00;;;;;;;4.90;4.50;;;;;;;24.88;49.73;96330.88;4936883;29;20243;-60
2023/06/12 07:00:28;;;;;;;5.68;4.45;;;;;;;24.54;48.61;96330.72;4937083;29;20221;-59
2023/06/12 07:02:56;;;;;;;4.65;4.25;;;;;;;24.84;49.45;96327.00;4943494;29;20632;-60
2023/06/12 07:05:24;;;;;;;4.72;4.32;;;;;;;24.97;48.12;96324.06;4943652;29;20211;-60
2023/06/12 07:07:51;;;;;;;4.45;4.07;;;;;;;24.93;48.32;96333.72;4942839;29;20277;-60
2023/06/12 07:10:18;;;;;;;4.75;4.22;;;;;;;25.34;48.73;96325.28;4940460;29;20278;-61
2023/06/12 07:12:44;;;;;;;5.25;4.07;;;;;;;25.31;47.84;96331.19;4939706;29;20246;-60
2023/06/12 07:15:11;;;;;;;6.35;4.65;;;;;;;25.43;46.46;96329.25;4940454;29;20219;-61
2023/06/12 07:17:38;;;;;;;4.68;4.20;;;;;;;25.68;46.16;96318.88;4955463;29;20246;-61
2023/06/12 07:20:06;;;;;;;4.63;4.32;;;;;;;25.69;46.91;96328.66;4955226;29;20219;-60
2023/06/12 07:22:34;;;;;;;4.85;4.45;;;;;;;25.90;47.06;96329.00;4953302;29;20305;-60
2023/06/12 07:25:00;;;;;;;4.28;4.07;;;;;;;25.92;47.46;96326.84;4939841;29;20223;-62
2023/06/12 07:27:27;;;;;;;4.93;4.43;;;;;;;26.15;46.83;96329.38;4939770;29;20226;-60
2023/06/12 07:29:55;;;;;;;5.05;4.63;;;;;;;26.31;46.87;96320.44;4950068;29;20214;-61
2023/06/12 07:32:21;;;;;;;4.13;3.92;;;;;;;26.52;45.58;96327.78;4958225;29;20293;-61
2023/06/12 07:34:50;;;;;;;5.13;4.20;;;;;;;26.41;46.58;96325.16;4958726;29;20656;-59
2023/06/12 07:37:16;;;;;;;5.40;4.80;;;;;;;26.18;44.88;96318.88;4959246;28;20226;-61
2023/06/12 07:39:43;;;;;;;4.53;4.13;;;;;;;25.90;46.28;96329.00;4958890;29;20214;-61
2023/06/12 07:42:09;;;;;;;5.13;4.07;;;;;;;26.41;46.92;96317.03;4958171;29;20210;-61
2023/06/12 07:44:37;;;;;;;6.22;4.68;;;;;;;26.67;46.37;96325.28;4958856;29;20243;-61
2023/06/12 07:47:04;;;;;;;6.78;4.28;;;;;;;26.47;46.62;96322.28;4958880;29;20240;-61
2023/06/12 07:49:30;;;;;;;4.97;4.47;;;;;;;26.74;44.24;96327.78;4951934;29;20254;-62
2023/06/12 07:51:59;;;;;;;4.53;4.22;;;;;;;26.71;45.29;96320.97;4958124;29;20214;-60
2023/06/12 07:54:26;;;;;;;5.63;5.07;;;;;;;26.57;43.37;96318.91;4958526;28;20211;-60
2023/06/12 07:56:53;;;;;;;5.82;4.40;;;;;;;26.60;45.23;96313.78;4943365;29;20204;-60
2023/06/12 07:59:20;;;;;;;8.32;5.10;;;;;;;26.66;44.08;96315.47;4939767;29;20211;-60
2023/06/12 08:01:47;;;;;;;5.07;4.60;;;;;;;26.71;45.84;96317.44;4939020;29;20226;-60
2023/06/12 08:04:14;;;;;;;4.63;4.32;;;;;;;26.61;44.86;96312.69;4939578;29;20222;-60
2023/06/12 08:06:42;;;;;;;5.68;4.50;;;;;;;26.59;44.28;96311.31;4939247;29;20235;-59
2023/06/12 08:09:10;;;;;;;5.20;4.75;;;;;;;26.40;45.76;96301.81;4939034;29;20616;-61
2023/06/12 08:11:39;;;;;;;4.88;4.50;;;;;;;26.20;46.21;96305.09;4954724;28;20238;-60
2023/06/12 08:14:05;;;;;;;5.25;4.85;;;;;;;26.26;44.79;96306.78;4958952;29;20210;-60
2023/06/12 08:16:32;;;;;;;6.40;4.50;;;;;;;26.25;45.82;96305.16;4958057;29;20294;-61
2023/06/12 08:18:58;;;;;;;5.15;4.60;;;;;;;26.25;46.39;96307.06;4958624;29;20269;-61
2023/06/12 08:21:26;;;;;;;5.10;4.70;;;;;;;26.31;46.83;96301.44;4954867;29;20289;-61
2023/06/12 08:23:52;;;;;;;5.95;4.75;;;;;;;26.14;46.63;96298.75;4949908;29;20277;-61
2023/06/12 08:26:21;;;;;;;5.97;4.07;;;;;;;26.25;48.23;96297.03;4957466;29;20223;-60
2023/06/12 08:28:49;;;;;;;4.65;4.20;;;;;;;26.39;47.10;96294.78;4958156;29;20227;-61
2023/06/12 08:31:16;;;;;;;4.85;4.45;;;;;;;26.59;47.78;96300.47;4957339;29;20245;-61
2023/06/12 08:33:42;;;;;;;4.85;4.40;;;;;;;26.56;46.69;96295.56;4958119;29;20222;-61
2023/06/12 08:36:09;;;;;;;5.03;4.63;;;;;;;26.71;45.85;96299.25;4957931;29;20214;-60
2023/06/12 08:38:35;;;;;;;4.47;4.20;;;;;;;26.42;45.16;96297.81;4958053;29;20219;-60
2023/06/12 08:41:03;;;;;;;5.00;4.60;;;;;;;26.70;47.40;96294.91;4958062;29;20305;-60
2023/06/12 08:43:32;;;;;;;4.95;4.50;;;;;;;26.84;45.33;96286.41;4958108;29;20218;-61
2023/06/12 08:45:58;;;;;;;4.60;4.30;;;;;;;26.91;45.60;96292.47;4957458;28;20214;-60
2023/06/12 08:48:27;;;;;;;4.82;4.43;;;;;;;26.82;45.54;96297.50;4957775;28;20284;-60
2023/06/12 08:50:56;;;;;;;5.05;4.65;;;;;;;26.61;47.08;96304.56;4957496;29;20206;-60
2023/06/12 08:53:23;;;;;;;5.18;4.75;;;;;;;26.85;46.61;96288.06;4957958;29;20305;-60
2023/06/12 08:55:50;;;;;;;4.90;4.50;;;;;;;26.93;44.59;96291.13;4950469;29;20235;-60
2023/06/12 08:58:17;;;;;;;5.47;4.70;;;;;;;27.27;44.60;96288.25;4938403;29;20210;-61
2023/06/12 09:00:45;;;;;;;5.13;4.65;;;;;;;27.42;44.36;96294.63;4938461;29;20207;-60
2023/06/12 09:03:12;;;;;;;4.80;4.40;;;;;;;27.66;46.29;96284.28;4952912;29;20215;-60
2023/06/12 09:05:40;;;;;;;6.68;4.88;;;;;;;27.90;44.85;96295.63;4956962;29;20215;-60
2023/06/12 09:08:07;;;;;;;4.80;4.40;;;;;;;27.72;44.84;96294.13;4946727;29;20227;-60
2023/06/12 09:10:34;;;;;;;4.35;4.05;;;;;;;27.77;42.73;96288.75;4948230;29;20637;-61
2023/06/12 09:13:02;;;;;;;4.93;4.53;;;;;;;27.35;42.47;96290.50;4956134;29;20214;-60
2023/06/12 09:15:29;;;;;;;5.18;4.53;;;;;;;27.13;43.36;96291.38;4937431;29;20225;-60
2023/06/12 09:17:58;;;;;;;5.03;4.47;;;;;;;27.13;45.07;96293.28;4938246;29;20581;-60
2023/06/12 09:20:26;;;;;;;4.72;4.30;;;;;;;27.53;45.33;96296.38;4946601;29;20241;-61
2023/06/12 09:22:52;;;;;;;4.72;4.43;;;;;;;27.54;43.48;96286.34;4941208;28;20604;-61
2023/06/12 09:25:19;;;;;;;5.85;4.55;;;;;;;27.61;44.20;96285.06;4937817;29;20207;-59
2023/06/12 09:27:47;;;;;;;4.72;4.30;;;;;;;27.32;43.29;96283.66;4943542;29;20242;-60
2023/06/12 09:30:14;;;;;;;6.68;4.32;;;;;;;27.63;43.31;96285.59;4947120;29;20551;-60
2023/06/12 09:32:43;;;;;;;4.95;4.55;;;;;;;27.76;43.06;96289.81;4941265;29;20310;-60
2023/06/12 09:35:12;;;;;;;4.82;4.47;;;;;;;27.91;43.52;96286.38;4938310;29;20653;-60
2023/06/12 09:37:38;;;;;;;4.75;4.45;;;;;;;27.87;44.18;96280.66;4938621;29;20229;-61
2023/06/12 09:40:09;;;;;;;4.15;3.85;;;;;;;28.18;44.94;96279.81;4937915;29;20215;-61
2023/06/12 09:42:36;;;;;;;4.97;4.57;;;;;;;28.46;42.67;96270.44;4942339;29;20276;-60
2023/06/12 09:45:11;;;;;;;4.90;4.50;;;;;;;28.44;42.23;96277.25;4945996;29;20222;-60
2023/06/12 09:47:41;;;;;;;5.05;4.65;;;;;;;28.61;41.58;96281.41;4937799;29;20571;-60
2023/06/12 09:50:08;;;;;;;4.78;4.45;;;;;;;28.36;41.07;96277.72;4942072;29;20207;-60
2023/06/12 09:52:36;;;;;;;4.50;4.10;;;;;;;28.48;41.21;96276.44;4937712;29;20278;-60
2023/06/12 09:55:05;;;;;;;5.38;4.47;;;;;;;28.20;43.28;96279.53;4942445;29;20642;-61
2023/06/12 09:57:32;;;;;;;5.10;4.70;;;;;;;28.02;42.81;96272.59;4938698;29;20215;-60
2023/06/12 10:00:02;;;;;;;5.20;4.80;;;;;;;27.96;42.80;96261.94;4937458;29;20218;-61
2023/06/12 10:02:28;;;;;;;4.78;4.43;;;;;;;28.17;41.51;96271.91;4946660;29;20667;-60
2023/06/12 10:04:59;;;;;;;4.53;4.13;;;;;;;28.34;42.75;96264.38;4942224;29;20211;-61
2023/06/12 10:07:31;;;;;;;4.50;4.20;;;;;;;28.01;42.12;96248.41;4938663;29;20290;-58
2023/06/12 10:10:02;;;;;;;8.27;4.20;;;;;;;28.27;42.98;96263.78;4937553;29;20241;-61
2023/06/12 10:12:32;;;;;;;4.97;4.38;;;;;;;28.61;42.26;96265.06;4947331;29;20241;-60
2023/06/12 10:14:59;;;;;;;4.70;4.20;;;;;;;28.71;44.03;96253.44;4938652;29;20215;-60
2023/06/12 10:17:26;;;;;;;4.20;3.90;;;;;;;28.63;40.59;96257.44;4937454;29;20211;-61
2023/06/12 10:19:54;;;;;;;4.53;4.13;;;;;;;28.77;40.11;96262.44;4937233;29;20270;-60
2023/06/12 10:22:21;;;;;;;4.18;3.88;;;;;;;29.11;41.55;96247.28;4937484;29;20250;-60
2023/06/12 10:24:48;;;;;;;4.38;4.00;;;;;;;29.00;40.01;96248.34;4937240;29;20207;-60
2023/06/12 10:27:16;;;;;;;4.68;4.22;;;;;;;29.00;42.29;96241.00;4937337;29;20211;-61
2023/06/12 10:29:43;;;;;;;5.10;4.70;;;;;;;29.03;41.31;96245.09;4940992;29;20351;-60
2023/06/12 10:32:12;;;;;;;5.95;4.30;;;;;;;28.87;40.41;96246.16;4937090;29;20212;-60
2023/06/12 10:34:41;;;;;;;6.72;4.10;;;;;;;28.88;39.84;96248.59;4938497;29;20625;-60
2023/06/12 10:37:25;;;;;;;4.63;4.30;;;;;;;28.24;39.46;96245.28;4941249;29;20310;-59
2023/06/12 10:40:07;;;;;;;4.30;4.00;;;;;;;28.51;39.82;96243.28;4941169;29;20219;-60
2023/06/12 10:42:48;;;;;;;4.00;3.60;;;;;;;28.92;40.26;96237.97;4941062;29;20203;-61
2023/06/12 10:45:16;;;;;;;4.53;3.70;;;;;;;28.72;36.91;96248.81;4940527;29;20226;-59
2023/06/12 10:47:43;;;;;;;3.92;3.63;;;;;;;28.77;36.98;96240.69;4940866;29;20231;-61
2023/06/12 10:50:10;;;;;;;3.70;3.40;;;;;;;28.94;38.05;96235.81;4944173;29;20715;-60
2023/06/12 10:52:37;;;;;;;3.85;3.65;;;;;;;29.03;37.91;96229.56;4941658;29;20638;-60
2023/06/12 10:55:23;;;;;;;4.15;3.83;;;;;;;29.02;37.59;96227.09;4945983;29;20198;-60
2023/06/12 10:57:53;;;;;;;3.72;3.40;;;;;;;28.95;36.07;96226.56;4940855;29;20301;-59
2023/06/12 11:00:21;;;;;;;3.60;3.40;;;;;;;28.73;36.16;96225.97;4957412;29;20211;-59
2023/06/12 11:02:57;;;;;;;3.40;3.13;;;;;;;28.92;36.69;96217.03;4959904;29;20654;-60
2023/06/12 11:05:23;;;;;;;3.75;3.55;;;;;;;28.55;37.15;96217.19;4959574;29;20237;-60
2023/06/12 11:07:50;;;;;;;3.95;3.67;;;;;;;28.84;37.70;96214.03;4959850;28;20230;-60
2023/06/12 11:10:17;;;;;;;4.00;3.80;;;;;;;28.99;37.67;96211.31;4959720;29;20241;-60
2023/06/12 11:12:47;;;;;;;3.90;3.60;;;;;;;29.34;38.11;96207.84;4959584;29;20344;-60
2023/06/12 11:15:16;;;;;;;4.35;4.05;;;;;;;29.35;37.10;96204.84;4959728;29;20218;-59
2023/06/12 11:17:43;;;;;;;4.15;3.88;;;;;;;29.53;35.70;96207.03;4960283;29;20222;-60
2023/06/12 11:20:10;;;;;;;4.18;3.97;;;;;;;29.74;36.96;96207.84;4960087;29;20210;-59
2023/06/12 11:22:37;;;;;;;5.63;4.28;;;;;;;29.15;35.05;96207.53;4960064;28;20221;-60
2023/06/12 11:25:04;;;;;;;3.97;3.70;;;;;;;28.87;34.66;96199.88;4960907;29;20273;-60
2023/06/12 11:27:31;;;;;;;5.05;3.90;;;;;;;29.43;35.34;96201.59;4958993;29;20225;-60
2023/06/12 11:29:57;;;;;;;4.65;4.20;;;;;;;29.60;36.18;96188.50;4951277;28;20245;-60
2023/06/12 11:32:25;;;;;;;4.22;3.92;;;;;;;29.57;34.89;96189.06;4955017;29;20211;-61
2023/06/12 11:34:52;;;;;;;4.47;4.05;;;;;;;29.97;35.88;96195.56;4960520;29;20223;-61
2023/06/12 11:37:20;;;;;;;4.10;3.70;;;;;;;29.87;34.62;96190.13;4960167;29;20214;-61